Terminal Aerodrome Forecast
Issued by NWS

Home | Current Version | Previous Version | Text Only | Print | Product List | Glossary On
Versions: 1 2 3 4 5 6 7 8 9 10 11
854
FTUS46 KSGX 272320
TAFTRM
TAF
KTRM 272320Z 2800/2824 33008KT P6SM SCT250
     FM281800 36011G20KT P6SM SCT250
     FM282100 36007KT P6SM SCT250=

USA.gov is the U.S. government's official web portal to all federal, state and local government web resources and services.